sensor_id;sensor_type;location;lat;lon;timestamp;temperature;humidity
12053;DHT22;6087;48.982;12.064;2023-09-19T00:02:16;17.60;73.20
12053;DHT22;6087;48.982;12.064;2023-09-19T00:04:43;17.60;73.40
12053;DHT22;6087;48.982;12.064;2023-09-19T00:07:10;17.60;74.20
12053;DHT22;6087;48.982;12.064;2023-09-19T00:09:37;17.60;74.70
12053;DHT22;6087;48.982;12.064;2023-09-19T00:12:05;17.60;74.70
12053;DHT22;6087;48.982;12.064;2023-09-19T00:14:32;17.60;75.50
12053;DHT22;6087;48.982;12.064;2023-09-19T00:17:03;17.50;76.00
12053;DHT22;6087;48.982;12.064;2023-09-19T00:19:33;17.50;77.30
12053;DHT22;6087;48.982;12.064;2023-09-19T00:22:01;17.50;78.40
12053;DHT22;6087;48.982;12.064;2023-09-19T00:24:28;17.50;78.80
12053;DHT22;6087;48.982;12.064;2023-09-19T00:26:55;17.40;79.90
12053;DHT22;6087;48.982;12.064;2023-09-19T00:29:22;17.40;80.10
12053;DHT22;6087;48.982;12.064;2023-09-19T00:31:49;17.40;80.30
12053;DHT22;6087;48.982;12.064;2023-09-19T00:34:18;17.40;79.80
12053;DHT22;6087;48.982;12.064;2023-09-19T00:36:45;17.40;80.90
12053;DHT22;6087;48.982;12.064;2023-09-19T00:39:14;17.40;81.50
12053;DHT22;6087;48.982;12.064;2023-09-19T00:41:41;17.40;81.80
12053;DHT22;6087;48.982;12.064;2023-09-19T00:44:10;17.40;82.20
12053;DHT22;6087;48.982;12.064;2023-09-19T00:46:37;17.30;82.80
12053;DHT22;6087;48.982;12.064;2023-09-19T00:49:04;17.30;82.90
12053;DHT22;6087;48.982;12.064;2023-09-19T00:51:34;17.30;82.60
12053;DHT22;6087;48.982;12.064;2023-09-19T00:54:02;17.30;83.00
12053;DHT22;6087;48.982;12.064;2023-09-19T00:56:30;17.30;84.00
12053;DHT22;6087;48.982;12.064;2023-09-19T00:58:57;17.30;83.30
12053;DHT22;6087;48.982;12.064;2023-09-19T01:01:24;17.30;82.60
12053;DHT22;6087;48.982;12.064;2023-09-19T01:03:52;17.30;83.40
12053;DHT22;6087;48.982;12.064;2023-09-19T01:06:19;17.30;83.00
12053;DHT22;6087;48.982;12.064;2023-09-19T01:08:48;17.20;84.00
12053;DHT22;6087;48.982;12.064;2023-09-19T01:11:20;17.20;85.80
12053;DHT22;6087;48.982;12.064;2023-09-19T01:13:56;17.10;86.00
12053;DHT22;6087;48.982;12.064;2023-09-19T01:16:32;17.10;86.50
12053;DHT22;6087;48.982;12.064;2023-09-19T01:22:12;17.10;87.70
12053;DHT22;6087;48.982;12.064;2023-09-19T01:25:13;17.00;88.20
12053;DHT22;6087;48.982;12.064;2023-09-19T01:28:06;16.90;89.80
12053;DHT22;6087;48.982;12.064;2023-09-19T01:30:42;17.00;90.00
12053;DHT22;6087;48.982;12.064;2023-09-19T01:33:10;17.00;90.10
12053;DHT22;6087;48.982;12.064;2023-09-19T01:35:38;17.00;90.20
12053;DHT22;6087;48.982;12.064;2023-09-19T01:38:05;17.00;90.00
12053;DHT22;6087;48.982;12.064;2023-09-19T01:40:41;16.90;90.70
12053;DHT22;6087;48.982;12.064;2023-09-19T01:43:16;16.90;91.00
12053;DHT22;6087;48.982;12.064;2023-09-19T01:45:50;16.80;91.40
12053;DHT22;6087;48.982;12.064;2023-09-19T01:48:28;16.80;92.00
12053;DHT22;6087;48.982;12.064;2023-09-19T01:51:00;16.80;92.20
12053;DHT22;6087;48.982;12.064;2023-09-19T01:53:33;16.80;92.20
12053;DHT22;6087;48.982;12.064;2023-09-19T01:56:01;16.70;92.40
12053;DHT22;6087;48.982;12.064;2023-09-19T01:58:32;16.70;93.50
12053;DHT22;6087;48.982;12.064;2023-09-19T02:01:03;16.70;92.70
12053;DHT22;6087;48.982;12.064;2023-09-19T02:03:33;16.60;93.30
12053;DHT22;6087;48.982;12.064;2023-09-19T02:06:02;16.60;93.40
12053;DHT22;6087;48.982;12.064;2023-09-19T02:08:31;16.60;93.60
12053;DHT22;6087;48.982;12.064;2023-09-19T02:10:59;16.60;93.70
12053;DHT22;6087;48.982;12.064;2023-09-19T02:13:26;16.60;93.80
12053;DHT22;6087;48.982;12.064;2023-09-19T02:15:53;16.60;94.10
12053;DHT22;6087;48.982;12.064;2023-09-19T02:18:22;16.60;93.80
12053;DHT22;6087;48.982;12.064;2023-09-19T02:20:49;16.60;94.00
12053;DHT22;6087;48.982;12.064;2023-09-19T02:23:18;16.60;93.70
12053;DHT22;6087;48.982;12.064;2023-09-19T02:25:52;16.60;93.70
12053;DHT22;6087;48.982;12.064;2023-09-19T02:28:19;16.60;93.90
12053;DHT22;6087;48.982;12.064;2023-09-19T02:30:47;16.60;94.00
12053;DHT22;6087;48.982;12.064;2023-09-19T02:33:16;16.60;94.00
12053;DHT22;6087;48.982;12.064;2023-09-19T02:35:45;16.50;94.80
12053;DHT22;6087;48.982;12.064;2023-09-19T02:38:15;16.50;95.50
12053;DHT22;6087;48.982;12.064;2023-09-19T02:40:46;16.50;95.30
12053;DHT22;6087;48.982;12.064;2023-09-19T02:43:13;16.50;95.70
12053;DHT22;6087;48.982;12.064;2023-09-19T02:45:40;16.50;95.70
12053;DHT22;6087;48.982;12.064;2023-09-19T02:48:07;16.50;95.60
12053;DHT22;6087;48.982;12.064;2023-09-19T02:50:34;16.60;95.10
12053;DHT22;6087;48.982;12.064;2023-09-19T02:53:03;16.60;95.40
12053;DHT22;6087;48.982;12.064;2023-09-19T02:55:30;16.60;95.10
12053;DHT22;6087;48.982;12.064;2023-09-19T02:57:57;16.60;95.70
12053;DHT22;6087;48.982;12.064;2023-09-19T03:00:24;16.50;95.80
12053;DHT22;6087;48.982;12.064;2023-09-19T03:02:54;16.50;95.70
12053;DHT22;6087;48.982;12.064;2023-09-19T03:05:30;16.50;96.00
12053;DHT22;6087;48.982;12.064;2023-09-19T03:07:57;16.50;95.80
12053;DHT22;6087;48.982;12.064;2023-09-19T03:10:27;16.50;96.00
12053;DHT22;6087;48.982;12.064;2023-09-19T03:12:56;16.50;95.70
12053;DHT22;6087;48.982;12.064;2023-09-19T03:15:23;16.60;95.90
12053;DHT22;6087;48.982;12.064;2023-09-19T03:17:50;16.60;96.20
12053;DHT22;6087;48.982;12.064;2023-09-19T03:20:17;16.60;95.70
12053;DHT22;6087;48.982;12.064;2023-09-19T03:22:44;16.50;96.00
12053;DHT22;6087;48.982;12.064;2023-09-19T03:25:12;16.50;96.40
12053;DHT22;6087;48.982;12.064;2023-09-19T03:27:41;16.50;96.80
12053;DHT22;6087;48.982;12.064;2023-09-19T03:30:08;16.50;96.60
12053;DHT22;6087;48.982;12.064;2023-09-19T03:32:43;16.50;96.70
12053;DHT22;6087;48.982;12.064;2023-09-19T03:35:11;16.40;97.00
12053;DHT22;6087;48.982;12.064;2023-09-19T03:37:39;16.40;97.00
12053;DHT22;6087;48.982;12.064;2023-09-19T03:40:07;16.40;97.50
12053;DHT22;6087;48.982;12.064;2023-09-19T03:42:45;16.40;97.00
12053;DHT22;6087;48.982;12.064;2023-09-19T03:45:13;16.40;97.10
12053;DHT22;6087;48.982;12.064;2023-09-19T03:47:41;16.40;97.60
12053;DHT22;6087;48.982;12.064;2023-09-19T03:50:09;16.40;97.50
12053;DHT22;6087;48.982;12.064;2023-09-19T03:52:40;16.40;97.00
12053;DHT22;6087;48.982;12.064;2023-09-19T03:55:08;16.40;97.00
12053;DHT22;6087;48.982;12.064;2023-09-19T03:57:35;16.40;96.70
12053;DHT22;6087;48.982;12.064;2023-09-19T04:00:04;16.30;97.30
12053;DHT22;6087;48.982;12.064;2023-09-19T04:02:37;16.30;97.70
12053;DHT22;6087;48.982;12.064;2023-09-19T04:05:04;16.30;98.10
12053;DHT22;6087;48.982;12.064;2023-09-19T04:07:31;16.20;97.90
12053;DHT22;6087;48.982;12.064;2023-09-19T04:09:58;16.30;98.00
12053;DHT22;6087;48.982;12.064;2023-09-19T04:12:25;16.30;98.00
12053;DHT22;6087;48.982;12.064;2023-09-19T04:14:52;16.30;98.10
12053;DHT22;6087;48.982;12.064;2023-09-19T04:17:20;16.30;98.10
12053;DHT22;6087;48.982;12.064;2023-09-19T04:19:48;16.30;97.10
12053;DHT22;6087;48.982;12.064;2023-09-19T04:22:15;16.30;97.70
12053;DHT22;6087;48.982;12.064;2023-09-19T04:24:42;16.30;97.90
12053;DHT22;6087;48.982;12.064;2023-09-19T04:27:09;16.30;97.50
12053;DHT22;6087;48.982;12.064;2023-09-19T04:29:38;16.40;97.30
12053;DHT22;6087;48.982;12.064;2023-09-19T04:32:05;16.30;96.80
12053;DHT22;6087;48.982;12.064;2023-09-19T04:34:34;16.30;97.40
12053;DHT22;6087;48.982;12.064;2023-09-19T04:37:01;16.30;96.70
12053;DHT22;6087;48.982;12.064;2023-09-19T04:39:29;16.30;97.10
12053;DHT22;6087;48.982;12.064;2023-09-19T04:41:56;16.40;96.50
12053;DHT22;6087;48.982;12.064;2023-09-19T04:44:24;16.30;96.40
12053;DHT22;6087;48.982;12.064;2023-09-19T04:46:51;16.30;96.70
12053;DHT22;6087;48.982;12.064;2023-09-19T04:49:18;16.20;96.60
12053;DHT22;6087;48.982;12.064;2023-09-19T04:51:46;16.20;96.20
12053;DHT22;6087;48.982;12.064;2023-09-19T04:54:13;16.20;96.80
12053;DHT22;6087;48.982;12.064;2023-09-19T04:56:40;16.10;97.20
12053;DHT22;6087;48.982;12.064;2023-09-19T04:59:07;16.20;97.30
12053;DHT22;6087;48.982;12.064;2023-09-19T05:01:36;16.10;97.10
12053;DHT22;6087;48.982;12.064;2023-09-19T05:04:05;16.10;97.30
12053;DHT22;6087;48.982;12.064;2023-09-19T05:06:32;16.20;97.80
12053;DHT22;6087;48.982;12.064;2023-09-19T05:09:02;16.20;97.20
12053;DHT22;6087;48.982;12.064;2023-09-19T05:11:34;16.10;97.20
12053;DHT22;6087;48.982;12.064;2023-09-19T05:14:04;16.10;97.50
12053;DHT22;6087;48.982;12.064;2023-09-19T05:16:31;16.10;97.40
12053;DHT22;6087;48.982;12.064;2023-09-19T05:19:02;16.10;97.60
12053;DHT22;6087;48.982;12.064;2023-09-19T05:21:29;16.10;96.90
12053;DHT22;6087;48.982;12.064;2023-09-19T05:23:56;16.20;96.80
12053;DHT22;6087;48.982;12.064;2023-09-19T05:26:25;16.20;96.60
12053;DHT22;6087;48.982;12.064;2023-09-19T05:28:52;16.20;95.80
12053;DHT22;6087;48.982;12.064;2023-09-19T05:31:19;16.10;95.90
12053;DHT22;6087;48.982;12.064;2023-09-19T05:33:46;16.10;96.40
12053;DHT22;6087;48.982;12.064;2023-09-19T05:36:13;16.20;96.10
12053;DHT22;6087;48.982;12.064;2023-09-19T05:38:41;16.20;95.50
12053;DHT22;6087;48.982;12.064;2023-09-19T05:41:09;16.20;95.00
12053;DHT22;6087;48.982;12.064;2023-09-19T05:43:40;16.10;95.40
12053;DHT22;6087;48.982;12.064;2023-09-19T05:46:07;16.10;95.90
12053;DHT22;6087;48.982;12.064;2023-09-19T05:48:34;16.10;96.00
12053;DHT22;6087;48.982;12.064;2023-09-19T05:51:01;16.00;95.80
12053;DHT22;6087;48.982;12.064;2023-09-19T05:53:28;16.10;96.30
12053;DHT22;6087;48.982;12.064;2023-09-19T05:55:55;16.00;95.70
12053;DHT22;6087;48.982;12.064;2023-09-19T05:58:22;16.10;95.60
12053;DHT22;6087;48.982;12.064;2023-09-19T06:00:52;16.00;95.60
12053;DHT22;6087;48.982;12.064;2023-09-19T06:03:26;16.10;95.10
12053;DHT22;6087;48.982;12.064;2023-09-19T06:05:54;16.00;95.20
12053;DHT22;6087;48.982;12.064;2023-09-19T06:08:23;16.00;95.40
12053;DHT22;6087;48.982;12.064;2023-09-19T06:10:54;16.00;95.80
12053;DHT22;6087;48.982;12.064;2023-09-19T06:13:23;16.00;95.80
12053;DHT22;6087;48.982;12.064;2023-09-19T06:15:54;16.10;95.40
12053;DHT22;6087;48.982;12.064;2023-09-19T06:18:22;16.10;95.70
12053;DHT22;6087;48.982;12.064;2023-09-19T06:20:53;16.00;95.50
12053;DHT22;6087;48.982;12.064;2023-09-19T06:23:21;16.10;96.10
12053;DHT22;6087;48.982;12.064;2023-09-19T06:25:48;16.00;95.80
12053;DHT22;6087;48.982;12.064;2023-09-19T06:28:15;16.10;95.90
12053;DHT22;6087;48.982;12.064;2023-09-19T06:30:45;16.10;96.20
12053;DHT22;6087;48.982;12.064;2023-09-19T06:33:14;16.00;96.30
12053;DHT22;6087;48.982;12.064;2023-09-19T06:35:42;16.00;96.60
12053;DHT22;6087;48.982;12.064;2023-09-19T06:38:10;16.00;96.80
12053;DHT22;6087;48.982;12.064;2023-09-19T06:40:38;16.10;97.10
12053;DHT22;6087;48.982;12.064;2023-09-19T06:43:09;16.10;96.50
12053;DHT22;6087;48.982;12.064;2023-09-19T06:45:36;16.10;97.20
12053;DHT22;6087;48.982;12.064;2023-09-19T06:48:04;16.20;97.40
12053;DHT22;6087;48.982;12.064;2023-09-19T06:50:33;16.20;96.80
12053;DHT22;6087;48.982;12.064;2023-09-19T06:53:01;16.30;96.10
12053;DHT22;6087;48.982;12.064;2023-09-19T06:55:28;16.30;95.90
12053;DHT22;6087;48.982;12.064;2023-09-19T06:57:57;16.30;96.60
12053;DHT22;6087;48.982;12.064;2023-09-19T07:00:27;16.30;95.50
12053;DHT22;6087;48.982;12.064;2023-09-19T07:02:57;16.30;95.00
12053;DHT22;6087;48.982;12.064;2023-09-19T07:05:29;16.30;94.30
12053;DHT22;6087;48.982;12.064;2023-09-19T07:07:59;16.30;94.10
12053;DHT22;6087;48.982;12.064;2023-09-19T07:10:26;16.40;94.10
12053;DHT22;6087;48.982;12.064;2023-09-19T07:12:57;16.50;93.90
12053;DHT22;6087;48.982;12.064;2023-09-19T07:15:24;16.40;93.90
12053;DHT22;6087;48.982;12.064;2023-09-19T07:17:55;16.40;94.40
12053;DHT22;6087;48.982;12.064;2023-09-19T07:20:23;16.50;95.50
12053;DHT22;6087;48.982;12.064;2023-09-19T07:22:55;16.50;94.80
12053;DHT22;6087;48.982;12.064;2023-09-19T07:25:26;16.60;95.30
12053;DHT22;6087;48.982;12.064;2023-09-19T07:27:55;16.60;93.10
12053;DHT22;6087;48.982;12.064;2023-09-19T07:30:22;16.60;93.20
12053;DHT22;6087;48.982;12.064;2023-09-19T07:32:49;16.70;93.10
12053;DHT22;6087;48.982;12.064;2023-09-19T07:35:16;16.70;92.80
12053;DHT22;6087;48.982;12.064;2023-09-19T07:37:45;16.80;91.70
12053;DHT22;6087;48.982;12.064;2023-09-19T07:40:14;16.80;84.90
12053;DHT22;6087;48.982;12.064;2023-09-19T07:42:43;16.80;76.60
12053;DHT22;6087;48.982;12.064;2023-09-19T07:45:13;16.80;80.20
12053;DHT22;6087;48.982;12.064;2023-09-19T07:47:45;16.90;82.50
12053;DHT22;6087;48.982;12.064;2023-09-19T07:50:12;16.90;87.10
12053;DHT22;6087;48.982;12.064;2023-09-19T07:52:39;17.00;88.10
12053;DHT22;6087;48.982;12.064;2023-09-19T07:55:07;17.00;85.10
12053;DHT22;6087;48.982;12.064;2023-09-19T07:57:36;17.10;86.40
12053;DHT22;6087;48.982;12.064;2023-09-19T08:00:06;17.10;84.90
12053;DHT22;6087;48.982;12.064;2023-09-19T08:02:34;17.10;81.80
12053;DHT22;6087;48.982;12.064;2023-09-19T08:05:04;17.20;85.40
12053;DHT22;6087;48.982;12.064;2023-09-19T08:07:32;17.20;75.30
12053;DHT22;6087;48.982;12.064;2023-09-19T08:09:59;17.20;73.70
12053;DHT22;6087;48.982;12.064;2023-09-19T08:12:26;17.20;76.30
12053;DHT22;6087;48.982;12.064;2023-09-19T08:14:53;17.20;79.10
12053;DHT22;6087;48.982;12.064;2023-09-19T08:17:22;17.20;75.90
12053;DHT22;6087;48.982;12.064;2023-09-19T08:19:49;17.30;75.20
12053;DHT22;6087;48.982;12.064;2023-09-19T08:22:18;17.30;77.00
12053;DHT22;6087;48.982;12.064;2023-09-19T08:24:45;17.30;75.50
12053;DHT22;6087;48.982;12.064;2023-09-19T08:27:14;17.40;73.20
12053;DHT22;6087;48.982;12.064;2023-09-19T08:29:43;17.40;70.50
12053;DHT22;6087;48.982;12.064;2023-09-19T08:32:12;17.40;72.90
12053;DHT22;6087;48.982;12.064;2023-09-19T08:34:41;17.40;62.70
12053;DHT22;6087;48.982;12.064;2023-09-19T08:37:08;17.40;66.30
12053;DHT22;6087;48.982;12.064;2023-09-19T08:39:35;17.50;68.20
12053;DHT22;6087;48.982;12.064;2023-09-19T08:42:03;17.50;65.60
12053;DHT22;6087;48.982;12.064;2023-09-19T08:44:31;17.50;61.60
12053;DHT22;6087;48.982;12.064;2023-09-19T08:47:09;17.50;61.70
12053;DHT22;6087;48.982;12.064;2023-09-19T08:49:45;17.50;56.90
12053;DHT22;6087;48.982;12.064;2023-09-19T08:52:20;17.60;58.90
12053;DHT22;6087;48.982;12.064;2023-09-19T08:54:51;17.60;57.80
12053;DHT22;6087;48.982;12.064;2023-09-19T08:57:19;17.60;62.40
12053;DHT22;6087;48.982;12.064;2023-09-19T08:59:47;17.70;62.60
12053;DHT22;6087;48.982;12.064;2023-09-19T09:02:16;17.70;60.40
12053;DHT22;6087;48.982;12.064;2023-09-19T09:04:46;17.70;59.80
12053;DHT22;6087;48.982;12.064;2023-09-19T09:07:14;17.70;53.70
12053;DHT22;6087;48.982;12.064;2023-09-19T09:09:42;17.70;54.20
12053;DHT22;6087;48.982;12.064;2023-09-19T09:12:11;17.70;51.20
12053;DHT22;6087;48.982;12.064;2023-09-19T09:14:39;17.80;54.60
12053;DHT22;6087;48.982;12.064;2023-09-19T09:17:07;17.80;50.40
12053;DHT22;6087;48.982;12.064;2023-09-19T09:19:34;17.80;53.00
12053;DHT22;6087;48.982;12.064;2023-09-19T09:22:08;17.80;55.20
12053;DHT22;6087;48.982;12.064;2023-09-19T09:24:35;17.80;57.60
12053;DHT22;6087;48.982;12.064;2023-09-19T09:27:05;17.80;61.40
12053;DHT22;6087;48.982;12.064;2023-09-19T09:29:44;17.80;67.10
12053;DHT22;6087;48.982;12.064;2023-09-19T09:32:19;17.70;63.80
12053;DHT22;6087;48.982;12.064;2023-09-19T09:34:48;17.70;53.80
12053;DHT22;6087;48.982;12.064;2023-09-19T09:37:17;17.70;47.40
12053;DHT22;6087;48.982;12.064;2023-09-19T09:39:55;17.70;44.90
12053;DHT22;6087;48.982;12.064;2023-09-19T09:42:30;17.60;41.80
12053;DHT22;6087;48.982;12.064;2023-09-19T09:45:14;17.40;43.50
12053;DHT22;6087;48.982;12.064;2023-09-19T09:47:42;17.30;44.00
12053;DHT22;6087;48.982;12.064;2023-09-19T09:50:26;17.20;44.20
12053;DHT22;6087;48.982;12.064;2023-09-19T09:53:20;17.00;48.20
12053;DHT22;6087;48.982;12.064;2023-09-19T09:56:01;16.90;49.50
12053;DHT22;6087;48.982;12.064;2023-09-19T09:58:31;16.90;52.10
12053;DHT22;6087;48.982;12.064;2023-09-19T10:00:59;16.90;53.40
12053;DHT22;6087;48.982;12.064;2023-09-19T10:03:33;16.80;50.90
12053;DHT22;6087;48.982;12.064;2023-09-19T10:06:06;16.90;52.00
12053;DHT22;6087;48.982;12.064;2023-09-19T10:09:05;16.90;50.20
12053;DHT22;6087;48.982;12.064;2023-09-19T10:11:41;16.80;51.40
12053;DHT22;6087;48.982;12.064;2023-09-19T10:14:11;16.90;49.40
12053;DHT22;6087;48.982;12.064;2023-09-19T10:16:41;16.80;46.90
12053;DHT22;6087;48.982;12.064;2023-09-19T10:19:15;16.90;48.80
12053;DHT22;6087;48.982;12.064;2023-09-19T10:21:43;16.90;46.40
12053;DHT22;6087;48.982;12.064;2023-09-19T10:24:14;16.90;43.50
12053;DHT22;6087;48.982;12.064;2023-09-19T10:26:46;16.90;48.30
12053;DHT22;6087;48.982;12.064;2023-09-19T10:29:18;17.00;48.60
12053;DHT22;6087;48.982;12.064;2023-09-19T10:31:47;17.00;48.10
12053;DHT22;6087;48.982;12.064;2023-09-19T10:34:14;17.00;48.60
12053;DHT22;6087;48.982;12.064;2023-09-19T10:36:45;17.00;47.80
12053;DHT22;6087;48.982;12.064;2023-09-19T10:39:16;17.10;47.10
12053;DHT22;6087;48.982;12.064;2023-09-19T10:41:50;17.00;46.10
12053;DHT22;6087;48.982;12.064;2023-09-19T10:44:24;17.00;47.70
12053;DHT22;6087;48.982;12.064;2023-09-19T10:46:52;17.00;48.00
12053;DHT22;6087;48.982;12.064;2023-09-19T10:49:20;17.00;48.60
12053;DHT22;6087;48.982;12.064;2023-09-19T10:51:49;17.10;50.50
12053;DHT22;6087;48.982;12.064;2023-09-19T10:54:20;17.10;48.80
12053;DHT22;6087;48.982;12.064;2023-09-19T10:56:53;17.20;49.30
12053;DHT22;6087;48.982;12.064;2023-09-19T10:59:22;17.20;47.30
12053;DHT22;6087;48.982;12.064;2023-09-19T11:01:51;17.20;44.80
12053;DHT22;6087;48.982;12.064;2023-09-19T11:04:29;17.20;47.60
12053;DHT22;6087;48.982;12.064;2023-09-19T11:07:03;17.20;45.20
12053;DHT22;6087;48.982;12.064;2023-09-19T11:09:46;17.30;47.20
12053;DHT22;6087;48.982;12.064;2023-09-19T11:24:30;17.60;49.90
12053;DHT22;6087;48.982;12.064;2023-09-19T11:27:11;17.60;48.60
12053;DHT22;6087;48.982;12.064;2023-09-19T11:29:40;17.80;47.30
12053;DHT22;6087;48.982;12.064;2023-09-19T11:32:07;17.90;47.00
12053;DHT22;6087;48.982;12.064;2023-09-19T11:34:40;17.90;47.90
12053;DHT22;6087;48.982;12.064;2023-09-19T11:40:44;18.20;48.50
12053;DHT22;6087;48.982;12.064;2023-09-19T11:43:31;18.30;40.50
12053;DHT22;6087;48.982;12.064;2023-09-19T11:46:09;18.40;47.30
12053;DHT22;6087;48.982;12.064;2023-09-19T11:48:39;18.50;39.80
12053;DHT22;6087;48.982;12.064;2023-09-19T11:51:15;18.60;38.40
12053;DHT22;6087;48.982;12.064;2023-09-19T11:53:45;18.60;35.00
12053;DHT22;6087;48.982;12.064;2023-09-19T11:56:16;18.70;37.60
12053;DHT22;6087;48.982;12.064;2023-09-19T11:58:49;18.70;36.00
12053;DHT22;6087;48.982;12.064;2023-09-19T12:01:22;18.80;38.30
12053;DHT22;6087;48.982;12.064;2023-09-19T12:03:53;19.00;32.10
12053;DHT22;6087;48.982;12.064;2023-09-19T12:06:23;19.00;28.30
12053;DHT22;6087;48.982;12.064;2023-09-19T12:08:50;19.10;25.20
12053;DHT22;6087;48.982;12.064;2023-09-19T12:11:21;19.10;24.60
12053;DHT22;6087;48.982;12.064;2023-09-19T12:13:50;19.30;23.40
12053;DHT22;6087;48.982;12.064;2023-09-19T12:16:20;19.50;25.80
12053;DHT22;6087;48.982;12.064;2023-09-19T12:18:50;19.70;23.00
12053;DHT22;6087;48.982;12.064;2023-09-19T12:21:27;19.80;22.70
12053;DHT22;6087;48.982;12.064;2023-09-19T12:24:07;19.90;20.40
12053;DHT22;6087;48.982;12.064;2023-09-19T12:26:42;19.90;19.00
12053;DHT22;6087;48.982;12.064;2023-09-19T12:29:16;19.90;15.90
12053;DHT22;6087;48.982;12.064;2023-09-19T12:31:51;20.00;14.90
12053;DHT22;6087;48.982;12.064;2023-09-19T12:34:24;20.00;13.80
12053;DHT22;6087;48.982;12.064;2023-09-19T12:37:06;20.10;15.00
12053;DHT22;6087;48.982;12.064;2023-09-19T12:39:41;20.30;12.60
12053;DHT22;6087;48.982;12.064;2023-09-19T12:42:12;20.60;13.10
12053;DHT22;6087;48.982;12.064;2023-09-19T12:44:43;20.80;13.00
12053;DHT22;6087;48.982;12.064;2023-09-19T12:47:12;20.90;11.40
12053;DHT22;6087;48.982;12.064;2023-09-19T12:50:10;21.00;9.70
12053;DHT22;6087;48.982;12.064;2023-09-19T12:52:42;21.00;8.30
12053;DHT22;6087;48.982;12.064;2023-09-19T12:55:24;21.00;8.20
12053;DHT22;6087;48.982;12.064;2023-09-19T12:57:59;21.20;7.50
12053;DHT22;6087;48.982;12.064;2023-09-19T13:00:36;21.20;6.80
12053;DHT22;6087;48.982;12.064;2023-09-19T13:03:13;21.00;5.80
12053;DHT22;6087;48.982;12.064;2023-09-19T13:06:02;20.80;6.60
12053;DHT22;6087;48.982;12.064;2023-09-19T13:08:30;20.90;7.90
12053;DHT22;6087;48.982;12.064;2023-09-19T13:11:09;21.00;7.30
12053;DHT22;6087;48.982;12.064;2023-09-19T13:13:39;21.10;6.80
12053;DHT22;6087;48.982;12.064;2023-09-19T13:16:08;21.00;6.00
12053;DHT22;6087;48.982;12.064;2023-09-19T13:18:45;21.10;6.40
12053;DHT22;6087;48.982;12.064;2023-09-19T13:21:13;21.20;6.10
12053;DHT22;6087;48.982;12.064;2023-09-19T13:23:51;21.30;5.50
12053;DHT22;6087;48.982;12.064;2023-09-19T13:26:18;21.40;6.20
12053;DHT22;6087;48.982;12.064;2023-09-19T13:28:45;21.60;6.50
12053;DHT22;6087;48.982;12.064;2023-09-19T13:31:16;21.70;4.30
12053;DHT22;6087;48.982;12.064;2023-09-19T13:33:44;21.70;3.80
12053;DHT22;6087;48.982;12.064;2023-09-19T13:36:11;21.60;2.90
12053;DHT22;6087;48.982;12.064;2023-09-19T13:38:39;21.70;3.90
12053;DHT22;6087;48.982;12.064;2023-09-19T13:41:06;21.80;3.90
12053;DHT22;6087;48.982;12.064;2023-09-19T13:43:33;21.80;2.40
12053;DHT22;6087;48.982;12.064;2023-09-19T13:45:59;21.90;2.00
12053;DHT22;6087;48.982;12.064;2023-09-19T13:48:32;21.80;1.30
12053;DHT22;6087;48.982;12.064;2023-09-19T13:51:01;22.20;3.50
12053;DHT22;6087;48.982;12.064;2023-09-19T13:53:28;22.00;1.00
12053;DHT22;6087;48.982;12.064;2023-09-19T13:55:55;22.10;1.00
12053;DHT22;6087;48.982;12.064;2023-09-19T13:58:27;22.30;1.00
12053;DHT22;6087;48.982;12.064;2023-09-19T14:00:56;22.30;1.00
12053;DHT22;6087;48.982;12.064;2023-09-19T14:03:25;22.20;1.00
12053;DHT22;6087;48.982;12.064;2023-09-19T14:05:55;22.20;1.00
12053;DHT22;6087;48.982;12.064;2023-09-19T14:08:22;22.20;1.00
12053;DHT22;6087;48.982;12.064;2023-09-19T14:10:50;22.10;1.00
12053;DHT22;6087;48.982;12.064;2023-09-19T14:13:17;21.90;1.00
12053;DHT22;6087;48.982;12.064;2023-09-19T14:15:45;21.90;1.00
12053;DHT22;6087;48.982;12.064;2023-09-19T14:18:12;22.00;1.00
12053;DHT22;6087;48.982;12.064;2023-09-19T14:20:39;21.80;1.00
12053;DHT22;6087;48.982;12.064;2023-09-19T14:23:08;21.70;1.00
12053;DHT22;6087;48.982;12.064;2023-09-19T14:25:35;21.50;1.00
12053;DHT22;6087;48.982;12.064;2023-09-19T14:28:04;21.60;1.00
12053;DHT22;6087;48.982;12.064;2023-09-19T14:30:32;21.70;1.00
12053;DHT22;6087;48.982;12.064;2023-09-19T14:32:59;21.60;1.00
12053;DHT22;6087;48.982;12.064;2023-09-19T14:35:26;21.50;1.00
12053;DHT22;6087;48.982;12.064;2023-09-19T14:37:53;21.40;1.00
12053;DHT22;6087;48.982;12.064;2023-09-19T14:40:22;21.40;1.00
12053;DHT22;6087;48.982;12.064;2023-09-19T14:42:49;21.50;1.00
12053;DHT22;6087;48.982;12.064;2023-09-19T14:45:16;21.50;1.00
12053;DHT22;6087;48.982;12.064;2023-09-19T14:47:45;21.60;1.00
12053;DHT22;6087;48.982;12.064;2023-09-19T14:50:12;21.70;1.00
12053;DHT22;6087;48.982;12.064;2023-09-19T14:52:40;21.60;1.00
12053;DHT22;6087;48.982;12.064;2023-09-19T14:55:08;21.80;1.00
12053;DHT22;6087;48.982;12.064;2023-09-19T14:57:42;21.80;1.00
12053;DHT22;6087;48.982;12.064;2023-09-19T15:00:12;21.80;1.00
12053;DHT22;6087;48.982;12.064;2023-09-19T15:02:39;21.70;1.00
12053;DHT22;6087;48.982;12.064;2023-09-19T15:05:07;21.70;1.00
12053;DHT22;6087;48.982;12.064;2023-09-19T15:07:35;21.70;1.00
12053;DHT22;6087;48.982;12.064;2023-09-19T15:10:04;21.60;1.00
12053;DHT22;6087;48.982;12.064;2023-09-19T15:12:32;21.60;1.00
12053;DHT22;6087;48.982;12.064;2023-09-19T15:15:02;21.60;1.00
12053;DHT22;6087;48.982;12.064;2023-09-19T15:17:31;21.50;1.00
12053;DHT22;6087;48.982;12.064;2023-09-19T15:19:58;21.30;1.00
12053;DHT22;6087;48.982;12.064;2023-09-19T15:22:24;21.20;1.00
12053;DHT22;6087;48.982;12.064;2023-09-19T15:24:52;21.20;1.00
12053;DHT22;6087;48.982;12.064;2023-09-19T15:27:19;21.20;1.00
12053;DHT22;6087;48.982;12.064;2023-09-19T15:29:46;21.10;1.00
12053;DHT22;6087;48.982;12.064;2023-09-19T15:32:14;21.20;1.00
12053;DHT22;6087;48.982;12.064;2023-09-19T15:34:41;21.20;1.00
12053;DHT22;6087;48.982;12.064;2023-09-19T15:37:08;21.20;1.00
12053;DHT22;6087;48.982;12.064;2023-09-19T15:39:35;21.20;1.00
12053;DHT22;6087;48.982;12.064;2023-09-19T15:42:03;21.10;1.00
12053;DHT22;6087;48.982;12.064;2023-09-19T15:44:30;21.10;1.00
12053;DHT22;6087;48.982;12.064;2023-09-19T15:46:58;21.10;1.00
12053;DHT22;6087;48.982;12.064;2023-09-19T15:49:26;21.00;1.00
12053;DHT22;6087;48.982;12.064;2023-09-19T15:51:53;20.90;1.00
12053;DHT22;6087;48.982;12.064;2023-09-19T15:54:20;21.00;1.00
12053;DHT22;6087;48.982;12.064;2023-09-19T15:56:47;20.90;1.00
12053;DHT22;6087;48.982;12.064;2023-09-19T15:59:16;20.90;1.00
12053;DHT22;6087;48.982;12.064;2023-09-19T16:01:44;20.90;1.00
12053;DHT22;6087;48.982;12.064;2023-09-19T16:04:11;20.80;1.00
12053;DHT22;6087;48.982;12.064;2023-09-19T16:06:41;20.80;1.00
12053;DHT22;6087;48.982;12.064;2023-09-19T16:09:08;20.70;1.00
12053;DHT22;6087;48.982;12.064;2023-09-19T16:11:36;20.70;1.00